sensor_id;sensor_type;location;lat;lon;timestamp;pressure;altitude;pressure_sealevel;temperature;humidity
53522;BME280;39398;48.382;9.802;2022-11-15T00:00:10;93705.78;;;8.82;94.57
53522;BME280;39398;48.382;9.802;2022-11-15T00:01:16;93696.56;;;8.71;95.09
53522;BME280;39398;48.382;9.802;2022-11-15T00:02:17;93698.44;;;8.77;94.85
53522;BME280;39398;48.382;9.802;2022-11-15T00:03:22;93690.38;;;8.79;94.79
53522;BME280;39398;48.382;9.802;2022-11-15T00:04:24;93690.09;;;8.74;95.09
53522;BME280;39398;48.382;9.802;2022-11-15T00:05:25;93691.91;;;8.73;95.09
53522;BME280;39398;48.382;9.802;2022-11-15T00:06:27;93692.25;;;8.85;95.59
53522;BME280;39398;48.382;9.802;2022-11-15T00:07:28;93680.91;;;8.84;95.09
53522;BME280;39398;48.382;9.802;2022-11-15T00:08:49;93685.75;;;8.81;94.72
53522;BME280;39398;48.382;9.802;2022-11-15T00:09:51;93678.84;;;8.80;94.63
53522;BME280;39398;48.382;9.802;2022-11-15T00:10:56;93680.59;;;8.73;95.18
53522;BME280;39398;48.382;9.802;2022-11-15T00:11:58;93676.50;;;8.70;95.68
53522;BME280;39398;48.382;9.802;2022-11-15T00:12:59;93672.91;;;8.56;95.61
53522;BME280;39398;48.382;9.802;2022-11-15T00:14:00;93673.56;;;8.58;96.38
53522;BME280;39398;48.382;9.802;2022-11-15T00:15:02;93678.34;;;8.55;96.55
53522;BME280;39398;48.382;9.802;2022-11-15T00:16:04;93682.34;;;8.66;96.17
53522;BME280;39398;48.382;9.802;2022-11-15T00:17:06;93678.53;;;8.68;95.71
53522;BME280;39398;48.382;9.802;2022-11-15T00:18:12;93686.16;;;8.63;95.61
53522;BME280;39398;48.382;9.802;2022-11-15T00:19:15;93679.50;;;8.67;95.81
53522;BME280;39398;48.382;9.802;2022-11-15T00:20:17;93677.63;;;8.61;96.54
53522;BME280;39398;48.382;9.802;2022-11-15T00:21:18;93677.91;;;8.51;96.55
53522;BME280;39398;48.382;9.802;2022-11-15T00:22:20;93672.09;;;8.56;96.66
53522;BME280;39398;48.382;9.802;2022-11-15T00:23:21;93683.72;;;8.61;96.59
53522;BME280;39398;48.382;9.802;2022-11-15T00:24:23;93676.63;;;8.62;96.39
53522;BME280;39398;48.382;9.802;2022-11-15T00:25:25;93679.25;;;8.62;96.88
53522;BME280;39398;48.382;9.802;2022-11-15T00:26:26;93675.81;;;8.61;97.36
53522;BME280;39398;48.382;9.802;2022-11-15T00:27:27;93679.47;;;8.46;97.88
53522;BME280;39398;48.382;9.802;2022-11-15T00:28:29;93683.38;;;8.50;97.99
53522;BME280;39398;48.382;9.802;2022-11-15T00:29:31;93682.47;;;8.43;97.70
53522;BME280;39398;48.382;9.802;2022-11-15T00:30:32;93686.25;;;8.55;98.04
53522;BME280;39398;48.382;9.802;2022-11-15T00:31:34;93682.81;;;8.54;97.72
53522;BME280;39398;48.382;9.802;2022-11-15T00:32:35;93680.97;;;8.55;97.73
53522;BME280;39398;48.382;9.802;2022-11-15T00:33:37;93678.19;;;8.56;97.61
53522;BME280;39398;48.382;9.802;2022-11-15T00:34:39;93676.56;;;8.55;97.33
53522;BME280;39398;48.382;9.802;2022-11-15T00:35:41;93683.41;;;8.71;96.85
53522;BME280;39398;48.382;9.802;2022-11-15T00:36:42;93682.19;;;8.74;96.64
53522;BME280;39398;48.382;9.802;2022-11-15T00:37:44;93681.41;;;8.73;96.59
53522;BME280;39398;48.382;9.802;2022-11-15T00:38:45;93684.16;;;8.87;96.58
53522;BME280;39398;48.382;9.802;2022-11-15T00:39:47;93676.91;;;8.89;96.40
53522;BME280;39398;48.382;9.802;2022-11-15T00:40:48;93682.38;;;8.87;96.20
53522;BME280;39398;48.382;9.802;2022-11-15T00:41:49;93686.19;;;8.84;96.19
53522;BME280;39398;48.382;9.802;2022-11-15T00:42:51;93681.59;;;8.93;96.39
53522;BME280;39398;48.382;9.802;2022-11-15T00:43:52;93678.72;;;8.88;96.26
53522;BME280;39398;48.382;9.802;2022-11-15T00:44:54;93682.25;;;8.95;96.43
53522;BME280;39398;48.382;9.802;2022-11-15T00:45:55;93689.59;;;9.00;96.15
53522;BME280;39398;48.382;9.802;2022-11-15T00:46:57;93680.38;;;9.11;95.59
53522;BME280;39398;48.382;9.802;2022-11-15T00:47:58;93673.53;;;9.16;94.96
53522;BME280;39398;48.382;9.802;2022-11-15T00:49:00;93676.72;;;9.12;95.53
53522;BME280;39398;48.382;9.802;2022-11-15T00:50:03;93671.53;;;8.97;95.99
53522;BME280;39398;48.382;9.802;2022-11-15T00:51:05;93669.13;;;9.02;96.41
53522;BME280;39398;48.382;9.802;2022-11-15T00:52:06;93670.69;;;8.96;96.75
53522;BME280;39398;48.382;9.802;2022-11-15T00:53:08;93659.06;;;8.84;97.28
53522;BME280;39398;48.382;9.802;2022-11-15T00:54:09;93662.53;;;8.70;98.29
53522;BME280;39398;48.382;9.802;2022-11-15T00:55:13;93655.44;;;8.70;98.45
53522;BME280;39398;48.382;9.802;2022-11-15T00:56:15;93654.31;;;8.58;98.95
53522;BME280;39398;48.382;9.802;2022-11-15T00:57:16;93662.75;;;8.53;99.66
53522;BME280;39398;48.382;9.802;2022-11-15T00:58:18;93651.34;;;8.46;100.00
53522;BME280;39398;48.382;9.802;2022-11-15T00:59:20;93648.34;;;8.49;99.74
53522;BME280;39398;48.382;9.802;2022-11-15T01:00:21;93653.31;;;8.59;99.75
53522;BME280;39398;48.382;9.802;2022-11-15T01:01:23;93651.50;;;8.59;100.00
53522;BME280;39398;48.382;9.802;2022-11-15T01:02:24;93648.78;;;8.53;100.00
53522;BME280;39398;48.382;9.802;2022-11-15T01:03:26;93652.69;;;8.57;100.00
53522;BME280;39398;48.382;9.802;2022-11-15T01:04:27;93646.25;;;8.59;99.71
53522;BME280;39398;48.382;9.802;2022-11-15T01:05:30;93640.09;;;8.52;100.00
53522;BME280;39398;48.382;9.802;2022-11-15T01:06:31;93651.00;;;8.49;100.00
53522;BME280;39398;48.382;9.802;2022-11-15T01:07:33;93642.97;;;8.57;100.00
53522;BME280;39398;48.382;9.802;2022-11-15T01:08:34;93651.53;;;8.45;100.00
53522;BME280;39398;48.382;9.802;2022-11-15T01:09:36;93654.22;;;8.51;100.00
53522;BME280;39398;48.382;9.802;2022-11-15T01:10:37;93651.06;;;8.56;99.85
53522;BME280;39398;48.382;9.802;2022-11-15T01:11:39;93653.78;;;8.48;100.00
53522;BME280;39398;48.382;9.802;2022-11-15T01:12:40;93651.88;;;8.56;99.89
53522;BME280;39398;48.382;9.802;2022-11-15T01:13:42;93653.63;;;8.49;99.48
53522;BME280;39398;48.382;9.802;2022-11-15T01:14:43;93654.31;;;8.58;99.93
53522;BME280;39398;48.382;9.802;2022-11-15T01:15:45;93652.13;;;8.61;99.75
53522;BME280;39398;48.382;9.802;2022-11-15T01:16:46;93645.44;;;8.44;100.00
53522;BME280;39398;48.382;9.802;2022-11-15T01:17:48;93641.91;;;8.37;100.00
53522;BME280;39398;48.382;9.802;2022-11-15T01:18:50;93634.56;;;8.32;100.00
53522;BME280;39398;48.382;9.802;2022-11-15T01:19:51;93642.00;;;8.29;100.00
53522;BME280;39398;48.382;9.802;2022-11-15T01:20:54;93646.09;;;8.16;100.00
53522;BME280;39398;48.382;9.802;2022-11-15T01:21:56;93633.88;;;8.09;100.00
53522;BME280;39398;48.382;9.802;2022-11-15T01:22:57;93632.78;;;8.18;100.00
53522;BME280;39398;48.382;9.802;2022-11-15T01:23:58;93636.78;;;8.14;100.00
53522;BME280;39398;48.382;9.802;2022-11-15T01:25:00;93631.41;;;8.22;100.00
53522;BME280;39398;48.382;9.802;2022-11-15T01:26:02;93637.03;;;8.19;100.00
53522;BME280;39398;48.382;9.802;2022-11-15T01:27:04;93634.69;;;8.24;100.00
53522;BME280;39398;48.382;9.802;2022-11-15T01:28:05;93640.00;;;8.31;100.00
53522;BME280;39398;48.382;9.802;2022-11-15T01:29:07;93639.66;;;8.34;100.00
53522;BME280;39398;48.382;9.802;2022-11-15T01:30:09;93634.75;;;8.31;100.00
53522;BME280;39398;48.382;9.802;2022-11-15T01:31:13;93632.41;;;8.36;100.00
53522;BME280;39398;48.382;9.802;2022-11-15T01:32:19;93632.50;;;8.43;99.21
53522;BME280;39398;48.382;9.802;2022-11-15T01:33:21;93627.91;;;8.51;99.40
53522;BME280;39398;48.382;9.802;2022-11-15T01:34:22;93627.50;;;8.69;98.17
53522;BME280;39398;48.382;9.802;2022-11-15T01:35:24;93628.53;;;8.68;96.65
53522;BME280;39398;48.382;9.802;2022-11-15T01:36:27;93623.38;;;8.81;96.13
53522;BME280;39398;48.382;9.802;2022-11-15T01:37:28;93627.63;;;8.61;95.40
53522;BME280;39398;48.382;9.802;2022-11-15T01:38:30;93624.88;;;8.69;95.37
53522;BME280;39398;48.382;9.802;2022-11-15T01:39:32;93620.94;;;8.07;97.47
53522;BME280;39398;48.382;9.802;2022-11-15T01:40:34;93617.56;;;7.99;100.00
53522;BME280;39398;48.382;9.802;2022-11-15T01:41:35;93618.66;;;8.04;100.00
53522;BME280;39398;48.382;9.802;2022-11-15T01:42:37;93617.25;;;8.38;99.20
53522;BME280;39398;48.382;9.802;2022-11-15T01:43:39;93616.78;;;8.49;98.37
53522;BME280;39398;48.382;9.802;2022-11-15T01:44:43;93615.19;;;8.55;97.67
53522;BME280;39398;48.382;9.802;2022-11-15T01:45:46;93618.84;;;8.54;97.33
53522;BME280;39398;48.382;9.802;2022-11-15T01:46:49;93614.66;;;8.59;97.45
53522;BME280;39398;48.382;9.802;2022-11-15T01:47:52;93611.03;;;8.60;96.53
53522;BME280;39398;48.382;9.802;2022-11-15T01:48:57;93617.09;;;8.61;96.54
53522;BME280;39398;48.382;9.802;2022-11-15T01:50:02;93611.47;;;8.64;96.09
53522;BME280;39398;48.382;9.802;2022-11-15T01:51:07;93613.09;;;8.65;95.84
53522;BME280;39398;48.382;9.802;2022-11-15T01:52:13;93612.38;;;8.71;95.83
53522;BME280;39398;48.382;9.802;2022-11-15T01:53:17;93606.53;;;8.76;95.37
53522;BME280;39398;48.382;9.802;2022-11-15T01:54:21;93605.50;;;8.77;95.57
53522;BME280;39398;48.382;9.802;2022-11-15T01:55:26;93603.88;;;8.76;95.09
53522;BME280;39398;48.382;9.802;2022-11-15T01:56:30;93601.25;;;8.76;95.28
53522;BME280;39398;48.382;9.802;2022-11-15T01:57:34;93602.06;;;8.76;95.03
53522;BME280;39398;48.382;9.802;2022-11-15T01:58:35;93603.69;;;8.77;95.23
53522;BME280;39398;48.382;9.802;2022-11-15T01:59:41;93605.28;;;8.72;94.79
53522;BME280;39398;48.382;9.802;2022-11-15T02:00:44;93599.56;;;8.68;94.96
53522;BME280;39398;48.382;9.802;2022-11-15T02:01:46;93600.56;;;8.67;95.26
53522;BME280;39398;48.382;9.802;2022-11-15T02:02:48;93599.56;;;8.68;95.65
53522;BME280;39398;48.382;9.802;2022-11-15T02:03:52;93602.22;;;8.68;96.19
53522;BME280;39398;48.382;9.802;2022-11-15T02:04:56;93597.94;;;8.67;95.76
53522;BME280;39398;48.382;9.802;2022-11-15T02:05:58;93590.78;;;8.61;95.98
53522;BME280;39398;48.382;9.802;2022-11-15T02:07:01;93589.72;;;8.55;96.22
53522;BME280;39398;48.382;9.802;2022-11-15T02:08:06;93599.88;;;8.58;96.28
53522;BME280;39398;48.382;9.802;2022-11-15T02:09:08;93590.47;;;8.49;95.90
53522;BME280;39398;48.382;9.802;2022-11-15T02:10:11;93590.22;;;8.29;97.13
53522;BME280;39398;48.382;9.802;2022-11-15T02:11:14;93583.34;;;8.13;98.29
53522;BME280;39398;48.382;9.802;2022-11-15T02:12:19;93593.09;;;7.98;99.67
53522;BME280;39398;48.382;9.802;2022-11-15T02:13:22;93595.47;;;7.93;100.00
53522;BME280;39398;48.382;9.802;2022-11-15T02:14:25;93592.09;;;7.84;100.00
53522;BME280;39398;48.382;9.802;2022-11-15T02:15:34;93591.78;;;7.73;100.00
53522;BME280;39398;48.382;9.802;2022-11-15T02:16:43;93595.56;;;7.55;100.00
53522;BME280;39398;48.382;9.802;2022-11-15T02:18:05;93591.47;;;7.53;100.00
53522;BME280;39398;48.382;9.802;2022-11-15T02:19:26;93583.97;;;7.50;100.00
53522;BME280;39398;48.382;9.802;2022-11-15T02:22:07;93579.91;;;7.47;100.00
53522;BME280;39398;48.382;9.802;2022-11-15T02:23:32;93579.56;;;7.50;100.00
53522;BME280;39398;48.382;9.802;2022-11-15T02:24:58;93584.97;;;7.63;100.00
53522;BME280;39398;48.382;9.802;2022-11-15T02:26:19;93579.53;;;7.65;100.00
53522;BME280;39398;48.382;9.802;2022-11-15T02:27:59;93581.72;;;7.61;100.00
53522;BME280;39398;48.382;9.802;2022-11-15T02:29:08;93577.63;;;7.74;100.00
53522;BME280;39398;48.382;9.802;2022-11-15T02:30:24;93569.75;;;7.74;100.00
53522;BME280;39398;48.382;9.802;2022-11-15T02:31:34;93569.75;;;7.88;100.00
53522;BME280;39398;48.382;9.802;2022-11-15T02:32:44;93564.88;;;8.07;100.00
53522;BME280;39398;48.382;9.802;2022-11-15T02:33:54;93563.59;;;8.18;99.86
53522;BME280;39398;48.382;9.802;2022-11-15T02:35:06;93566.09;;;8.04;100.00
53522;BME280;39398;48.382;9.802;2022-11-15T02:36:13;93563.63;;;8.03;99.65
53522;BME280;39398;48.382;9.802;2022-11-15T02:37:21;93565.00;;;7.99;100.00
53522;BME280;39398;48.382;9.802;2022-11-15T02:38:33;93569.25;;;8.00;100.00
53522;BME280;39398;48.382;9.802;2022-11-15T02:39:43;93562.88;;;8.24;99.58
53522;BME280;39398;48.382;9.802;2022-11-15T02:40:53;93563.69;;;8.24;98.25
53522;BME280;39398;48.382;9.802;2022-11-15T02:41:59;93556.41;;;8.26;97.42
53522;BME280;39398;48.382;9.802;2022-11-15T02:43:08;93558.78;;;8.21;96.90
53522;BME280;39398;48.382;9.802;2022-11-15T02:44:15;93557.75;;;8.37;96.79
53522;BME280;39398;48.382;9.802;2022-11-15T02:45:24;93548.78;;;8.31;96.02
53522;BME280;39398;48.382;9.802;2022-11-15T02:46:33;93550.03;;;8.35;95.96
53522;BME280;39398;48.382;9.802;2022-11-15T02:47:42;93545.88;;;8.41;95.66
53522;BME280;39398;48.382;9.802;2022-11-15T02:48:45;93554.41;;;8.43;95.28
53522;BME280;39398;48.382;9.802;2022-11-15T02:49:49;93551.31;;;8.40;96.30
53522;BME280;39398;48.382;9.802;2022-11-15T02:50:51;93547.47;;;8.42;95.87
53522;BME280;39398;48.382;9.802;2022-11-15T02:51:55;93543.34;;;8.33;95.49
53522;BME280;39398;48.382;9.802;2022-11-15T02:52:57;93542.50;;;8.32;95.12
53522;BME280;39398;48.382;9.802;2022-11-15T02:53:58;93543.72;;;8.30;95.13
53522;BME280;39398;48.382;9.802;2022-11-15T02:55:01;93544.16;;;8.33;94.89
53522;BME280;39398;48.382;9.802;2022-11-15T02:56:03;93541.91;;;8.30;94.93
53522;BME280;39398;48.382;9.802;2022-11-15T02:57:10;93542.97;;;8.36;94.89
53522;BME280;39398;48.382;9.802;2022-11-15T02:58:36;93539.50;;;8.35;94.23
53522;BME280;39398;48.382;9.802;2022-11-15T02:59:55;93541.63;;;8.25;94.00
53522;BME280;39398;48.382;9.802;2022-11-15T03:01:06;93538.63;;;8.28;94.21
53522;BME280;39398;48.382;9.802;2022-11-15T03:02:18;93541.09;;;8.30;94.14
53522;BME280;39398;48.382;9.802;2022-11-15T03:03:40;93541.25;;;8.28;94.39
53522;BME280;39398;48.382;9.802;2022-11-15T03:04:44;93541.03;;;8.23;94.74
53522;BME280;39398;48.382;9.802;2022-11-15T03:05:56;93543.66;;;8.23;94.97
53522;BME280;39398;48.382;9.802;2022-11-15T03:07:02;93547.31;;;8.29;95.16
53522;BME280;39398;48.382;9.802;2022-11-15T03:08:11;93547.75;;;8.32;95.12
53522;BME280;39398;48.382;9.802;2022-11-15T03:09:23;93539.63;;;8.27;95.27
53522;BME280;39398;48.382;9.802;2022-11-15T03:10:33;93543.66;;;8.23;95.62
53522;BME280;39398;48.382;9.802;2022-11-15T03:11:42;93544.69;;;8.29;95.81
53522;BME280;39398;48.382;9.802;2022-11-15T03:12:53;93545.19;;;8.18;96.60
53522;BME280;39398;48.382;9.802;2022-11-15T03:13:58;93549.44;;;8.19;97.39
53522;BME280;39398;48.382;9.802;2022-11-15T03:15:05;93551.28;;;8.18;97.35
53522;BME280;39398;48.382;9.802;2022-11-15T03:16:14;93539.59;;;8.06;97.87
53522;BME280;39398;48.382;9.802;2022-11-15T03:17:23;93546.09;;;8.10;97.89
53522;BME280;39398;48.382;9.802;2022-11-15T03:18:30;93545.19;;;8.18;97.98
53522;BME280;39398;48.382;9.802;2022-11-15T03:19:37;93548.94;;;8.08;97.97
53522;BME280;39398;48.382;9.802;2022-11-15T03:20:42;93538.88;;;8.12;97.97
53522;BME280;39398;48.382;9.802;2022-11-15T03:21:44;93543.44;;;8.25;97.99
53522;BME280;39398;48.382;9.802;2022-11-15T03:22:49;93539.00;;;8.25;98.25
53522;BME280;39398;48.382;9.802;2022-11-15T03:23:52;93534.81;;;8.31;97.33
53522;BME280;39398;48.382;9.802;2022-11-15T03:24:58;93541.91;;;8.30;97.00
53522;BME280;39398;48.382;9.802;2022-11-15T03:26:06;93536.69;;;8.37;96.50
53522;BME280;39398;48.382;9.802;2022-11-15T03:27:10;93539.78;;;8.41;95.89
53522;BME280;39398;48.382;9.802;2022-11-15T03:28:19;93537.72;;;8.36;96.10
53522;BME280;39398;48.382;9.802;2022-11-15T03:29:26;93533.09;;;8.38;95.92
53522;BME280;39398;48.382;9.802;2022-11-15T03:30:30;93535.34;;;8.41;95.93
53522;BME280;39398;48.382;9.802;2022-11-15T03:31:44;93536.69;;;8.37;95.74
53522;BME280;39398;48.382;9.802;2022-11-15T03:32:53;93538.09;;;8.33;95.99
53522;BME280;39398;48.382;9.802;2022-11-15T03:33:57;93539.06;;;8.32;96.05
53522;BME280;39398;48.382;9.802;2022-11-15T03:35:02;93536.00;;;8.28;96.40
53522;BME280;39398;48.382;9.802;2022-11-15T03:36:04;93536.81;;;8.29;96.28
53522;BME280;39398;48.382;9.802;2022-11-15T03:37:07;93536.63;;;8.30;96.52
53522;BME280;39398;48.382;9.802;2022-11-15T03:38:15;93530.31;;;8.25;96.80
53522;BME280;39398;48.382;9.802;2022-11-15T03:39:19;93534.31;;;8.21;97.26
53522;BME280;39398;48.382;9.802;2022-11-15T03:40:25;93531.19;;;8.32;96.87
53522;BME280;39398;48.382;9.802;2022-11-15T03:41:35;93522.75;;;8.36;96.52
53522;BME280;39398;48.382;9.802;2022-11-15T03:42:44;93526.44;;;8.42;95.87
53522;BME280;39398;48.382;9.802;2022-11-15T03:43:53;93524.34;;;8.37;95.75
53522;BME280;39398;48.382;9.802;2022-11-15T03:45:01;93525.47;;;8.43;95.41
53522;BME280;39398;48.382;9.802;2022-11-15T03:46:06;93529.16;;;8.49;95.18
53522;BME280;39398;48.382;9.802;2022-11-15T03:47:14;93520.88;;;8.52;94.31
53522;BME280;39398;48.382;9.802;2022-11-15T03:48:20;93526.22;;;8.58;93.98
53522;BME280;39398;48.382;9.802;2022-11-15T03:49:27;93524.72;;;8.49;93.86
53522;BME280;39398;48.382;9.802;2022-11-15T03:50:30;93522.56;;;8.59;94.13
53522;BME280;39398;48.382;9.802;2022-11-15T03:51:31;93525.25;;;8.45;94.22
53522;BME280;39398;48.382;9.802;2022-11-15T03:52:34;93526.91;;;8.46;94.97
53522;BME280;39398;48.382;9.802;2022-11-15T03:53:35;93528.81;;;8.37;95.44
53522;BME280;39398;48.382;9.802;2022-11-15T03:54:48;93524.72;;;8.49;96.38
53522;BME280;39398;48.382;9.802;2022-11-15T03:55:49;93516.41;;;8.31;95.73
53522;BME280;39398;48.382;9.802;2022-11-15T03:56:51;93524.72;;;8.34;96.12
53522;BME280;39398;48.382;9.802;2022-11-15T03:57:54;93523.53;;;8.15;96.65
53522;BME280;39398;48.382;9.802;2022-11-15T03:58:57;93524.84;;;8.05;98.03
53522;BME280;39398;48.382;9.802;2022-11-15T03:59:59;93523.34;;;7.81;99.48
53522;BME280;39398;48.382;9.802;2022-11-15T04:01:00;93527.06;;;7.86;99.64
53522;BME280;39398;48.382;9.802;2022-11-15T04:02:02;93523.63;;;7.86;99.88
53522;BME280;39398;48.382;9.802;2022-11-15T04:03:04;93528.22;;;7.84;100.00
53522;BME280;39398;48.382;9.802;2022-11-15T04:04:06;93529.47;;;7.88;100.00
53522;BME280;39398;48.382;9.802;2022-11-15T04:05:07;93528.66;;;7.87;100.00
53522;BME280;39398;48.382;9.802;2022-11-15T04:06:09;93524.50;;;7.93;100.00
53522;BME280;39398;48.382;9.802;2022-11-15T04:07:11;93520.19;;;8.07;100.00
53522;BME280;39398;48.382;9.802;2022-11-15T04:08:12;93510.94;;;8.11;100.00
53522;BME280;39398;48.382;9.802;2022-11-15T04:09:14;93514.31;;;8.05;100.00
53522;BME280;39398;48.382;9.802;2022-11-15T04:10:16;93512.56;;;8.12;99.58
53522;BME280;39398;48.382;9.802;2022-11-15T04:11:17;93519.97;;;8.23;99.74
53522;BME280;39398;48.382;9.802;2022-11-15T04:12:18;93512.00;;;8.16;99.04
53522;BME280;39398;48.382;9.802;2022-11-15T04:13:20;93510.88;;;8.26;98.32
53522;BME280;39398;48.382;9.802;2022-11-15T04:14:21;93513.28;;;8.21;97.79
53522;BME280;39398;48.382;9.802;2022-11-15T04:15:23;93503.50;;;8.14;97.57
53522;BME280;39398;48.382;9.802;2022-11-15T04:16:25;93503.19;;;8.24;97.45
53522;BME280;39398;48.382;9.802;2022-11-15T04:17:26;93505.56;;;8.19;97.45
53522;BME280;39398;48.382;9.802;2022-11-15T04:18:29;93505.31;;;8.14;97.17
53522;BME280;39398;48.382;9.802;2022-11-15T04:19:31;93507.25;;;8.05;97.54
53522;BME280;39398;48.382;9.802;2022-11-15T04:20:32;93503.31;;;8.16;97.03
53522;BME280;39398;48.382;9.802;2022-11-15T04:21:34;93505.00;;;8.02;97.23
53522;BME280;39398;48.382;9.802;2022-11-15T04:22:35;93506.09;;;7.93;97.61
53522;BME280;39398;48.382;9.802;2022-11-15T04:23:36;93502.94;;;7.98;97.34
53522;BME280;39398;48.382;9.802;2022-11-15T04:24:38;93501.84;;;7.92;96.89
53522;BME280;39398;48.382;9.802;2022-11-15T04:25:41;93504.47;;;7.92;97.35
53522;BME280;39398;48.382;9.802;2022-11-15T04:26:42;93501.22;;;7.90;97.65
53522;BME280;39398;48.382;9.802;2022-11-15T04:27:44;93497.84;;;7.96;98.04
53522;BME280;39398;48.382;9.802;2022-11-15T04:28:45;93503.84;;;7.90;98.32
53522;BME280;39398;48.382;9.802;2022-11-15T04:29:47;93498.38;;;7.70;99.25
53522;BME280;39398;48.382;9.802;2022-11-15T04:30:48;93502.03;;;7.90;99.71
53522;BME280;39398;48.382;9.802;2022-11-15T04:31:50;93502.97;;;7.68;100.00
53522;BME280;39398;48.382;9.802;2022-11-15T04:32:51;93505.59;;;7.83;100.00
53522;BME280;39398;48.382;9.802;2022-11-15T04:33:54;93500.56;;;7.88;100.00
53522;BME280;39398;48.382;9.802;2022-11-15T04:34:57;93499.28;;;7.99;99.71
53522;BME280;39398;48.382;9.802;2022-11-15T04:35:58;93495.06;;;7.83;99.91
53522;BME280;39398;48.382;9.802;2022-11-15T04:36:59;93498.94;;;7.87;100.00
53522;BME280;39398;48.382;9.802;2022-11-15T04:38:03;93497.44;;;7.78;100.00
53522;BME280;39398;48.382;9.802;2022-11-15T04:39:05;93492.00;;;7.79;100.00
53522;BME280;39398;48.382;9.802;2022-11-15T04:40:07;93497.91;;;7.66;100.00
53522;BME280;39398;48.382;9.802;2022-11-15T04:41:09;93489.91;;;7.75;100.00
53522;BME280;39398;48.382;9.802;2022-11-15T04:42:11;93491.44;;;7.84;100.00
53522;BME280;39398;48.382;9.802;2022-11-15T04:43:12;93497.78;;;7.89;100.00
53522;BME280;39398;48.382;9.802;2022-11-15T04:44:13;93489.69;;;7.91;100.00
53522;BME280;39398;48.382;9.802;2022-11-15T04:45:15;93488.09;;;8.11;100.00
53522;BME280;39398;48.382;9.802;2022-11-15T04:46:17;93494.66;;;8.01;99.78
53522;BME280;39398;48.382;9.802;2022-11-15T04:47:18;93492.66;;;7.66;99.69
53522;BME280;39398;48.382;9.802;2022-11-15T04:48:20;93490.34;;;7.12;100.00
53522;BME280;39398;48.382;9.802;2022-11-15T04:49:23;93495.31;;;6.92;100.00
53522;BME280;39398;48.382;9.802;2022-11-15T04:50:24;93486.19;;;7.03;100.00
53522;BME280;39398;48.382;9.802;2022-11-15T04:51:26;93486.44;;;7.38;100.00
53522;BME280;39398;48.382;9.802;2022-11-15T04:52:27;93484.06;;;7.58;100.00
53522;BME280;39398;48.382;9.802;2022-11-15T04:53:29;93490.28;;;7.72;100.00
53522;BME280;39398;48.382;9.802;2022-11-15T04:54:30;93486.00;;;7.19;100.00
53522;BME280;39398;48.382;9.802;2022-11-15T04:55:32;93486.16;;;7.33;100.00
53522;BME280;39398;48.382;9.802;2022-11-15T04:56:33;93488.44;;;7.36;100.00
53522;BME280;39398;48.382;9.802;2022-11-15T04:57:35;93493.69;;;7.36;100.00
53522;BME280;39398;48.382;9.802;2022-11-15T04:58:37;93487.78;;;7.34;100.00
53522;BME280;39398;48.382;9.802;2022-11-15T04:59:39;93488.16;;;7.45;100.00
53522;BME280;39398;48.382;9.802;2022-11-15T05:00:40;93492.97;;;7.42;100.00
53522;BME280;39398;48.382;9.802;2022-11-15T05:01:42;93490.63;;;7.47;100.00
53522;BME280;39398;48.382;9.802;2022-11-15T05:02:45;93485.88;;;7.57;100.00
53522;BME280;39398;48.382;9.802;2022-11-15T05:03:47;93490.97;;;7.14;100.00
53522;BME280;39398;48.382;9.802;2022-11-15T05:04:49;93495.94;;;7.24;100.00
53522;BME280;39398;48.382;9.802;2022-11-15T05:05:51;93490.69;;;7.39;100.00
53522;BME280;39398;48.382;9.802;2022-11-15T05:06:52;93489.81;;;7.32;100.00
53522;BME280;39398;48.382;9.802;2022-11-15T05:07:54;93487.47;;;6.92;100.00
53522;BME280;39398;48.382;9.802;2022-11-15T05:08:56;93492.31;;;6.81;100.00
53522;BME280;39398;48.382;9.802;2022-11-15T05:09:57;93487.19;;;7.02;100.00
53522;BME280;39398;48.382;9.802;2022-11-15T05:10:59;93485.19;;;7.04;100.00
53522;BME280;39398;48.382;9.802;2022-11-15T05:12:00;93478.31;;;7.03;100.00
53522;BME280;39398;48.382;9.802;2022-11-15T05:13:02;93484.53;;;7.17;100.00
53522;BME280;39398;48.382;9.802;2022-11-15T05:14:03;93487.97;;;7.17;100.00
53522;BME280;39398;48.382;9.802;2022-11-15T05:15:05;93486.28;;;7.25;100.00
53522;BME280;39398;48.382;9.802;2022-11-15T05:16:07;93482.56;;;7.19;100.00
53522;BME280;39398;48.382;9.802;2022-11-15T05:17:09;93480.31;;;7.16;100.00
53522;BME280;39398;48.382;9.802;2022-11-15T05:18:10;93484.56;;;7.32;100.00
53522;BME280;39398;48.382;9.802;2022-11-15T05:19:12;93485.72;;;7.44;100.00
53522;BME280;39398;48.382;9.802;2022-11-15T05:20:15;93485.09;;;7.12;100.00
53522;BME280;39398;48.382;9.802;2022-11-15T05:21:16;93478.84;;;6.84;100.00
53522;BME280;39398;48.382;9.802;2022-11-15T05:22:19;93479.09;;;6.89;100.00
53522;BME280;39398;48.382;9.802;2022-11-15T05:23:20;93484.72;;;6.71;100.00
53522;BME280;39398;48.382;9.802;2022-11-15T05:24:21;93484.06;;;6.54;100.00
53522;BME280;39398;48.382;9.802;2022-11-15T05:25:23;93477.75;;;6.40;100.00
53522;BME280;39398;48.382;9.802;2022-11-15T05:26:25;93481.78;;;6.28;100.00
53522;BME280;39398;48.382;9.802;2022-11-15T05:27:27;93482.22;;;6.17;100.00
53522;BME280;39398;48.382;9.802;2022-11-15T05:28:28;93481.63;;;6.07;100.00
53522;BME280;39398;48.382;9.802;2022-11-15T05:29:30;93482.91;;;6.11;100.00
53522;BME280;39398;48.382;9.802;2022-11-15T05:30:31;93479.41;;;6.18;100.00
53522;BME280;39398;48.382;9.802;2022-11-15T05:31:33;93490.06;;;6.17;100.00
53522;BME280;39398;48.382;9.802;2022-11-15T05:32:34;93492.06;;;6.15;100.00
53522;BME280;39398;48.382;9.802;2022-11-15T05:33:37;93490.59;;;6.35;100.00
53522;BME280;39398;48.382;9.802;2022-11-15T05:34:39;93484.88;;;6.55;100.00
53522;BME280;39398;48.382;9.802;2022-11-15T05:35:46;93486.06;;;6.67;100.00
53522;BME280;39398;48.382;9.802;2022-11-15T05:36:50;93490.41;;;6.74;100.00
53522;BME280;39398;48.382;9.802;2022-11-15T05:37:51;93481.47;;;6.84;100.00
53522;BME280;39398;48.382;9.802;2022-11-15T05:38:53;93474.34;;;6.92;100.00
53522;BME280;39398;48.382;9.802;2022-11-15T05:39:55;93478.13;;;7.05;100.00
53522;BME280;39398;48.382;9.802;2022-11-15T05:40:56;93477.22;;;6.97;100.00
53522;BME280;39398;48.382;9.802;2022-11-15T05:42:01;93478.84;;;6.98;100.00
53522;BME280;39398;48.382;9.802;2022-11-15T05:43:05;93477.06;;;6.99;100.00